Terminal Aerodrome Forecast
Issued by NWS

Current Version | Previous Version | Text Only | Print | Product List | Glossary On
Versions: 1 2 3 4 5 6 7 8 9 10 11 12 13 14 15 16
000
FTUS41 KBGM 312335
TAFRME
TAF
KRME 312335Z 0100/0124 27007KT P6SM SKC
      TEMPO 0103/0107 BKN035
     FM011500 24003KT P6SM FEW040=

USA.gov is the U.S. government's official web portal to all federal, state and local government web resources and services.